KBBW/BBW METAR and TAF weather

Enter ICAO airport designator
Station Type Date Time Source
KBBW METAR 2021/08/05 04:53 UTC NOAA

KBBW 050453Z AUTO 26007KT 10SM BKN110 21/14 A3005 RMK AO2 SLP156 T02060139


Station Type Date Time Source
KBBW Decoded METAR 2021/08/05 04:53 UTC NOAA

BROKEN BOW MUNICIPAL AIRPORT, NE, United States (KBBW) 41-26N 099-38W
Aug 05, 2021 - 12:53 AM EDT / 2021.08.05 0453 UTC
Wind: from the W (260 degrees) at 8 MPH (7 KT):0
Visibility: 10 mile(s):0
Sky conditions: mostly cloudy
Temperature: 69.1 F (20.6 C)
Dew Point: 57.0 F (13.9 C)
Relative Humidity: 65%
Pressure (altimeter): 30.05 in. Hg (1017 hPa)
ob: KBBW 050453Z AUTO 26007KT 10SM BKN110 21/14 A3005 RMK AO2 SLP156 T02060139
cycle: 5

Station Type Date Time Source
KBBW TAF UTC NOAA

Error!

Example: see airport list